Time;durP1;ratioP1;P1;durP2;ratioP2;P2;SDS_P1;SDS_P2;PMS_P1;PMS_P2;Temp;Humidity;BMP_temperature;BMP_pressure;BME280_temperature;BME280_humidity;BME280_pressure;Samples;Min_cycle;Max_cycle;Signal;HPM_P1;HPM_P2
2021/12/06 00:02:29;;;;;;;9.32;8.23;;;;;;;;;;5012820;28;20413;-84
2021/12/06 00:04:56;;;;;;;10.35;8.23;;;;;;;;;;5013166;28;20838;-84
2021/12/06 00:07:26;;;;;;;9.95;7.90;;;;;;;;;;5017537;28;20409;-84
2021/12/06 00:09:53;;;;;;;11.00;8.40;;;;;;;;;;5013087;28;20447;-84
2021/12/06 00:12:20;;;;;;;9.88;8.07;;;;;;;;;;5014017;28;21385;-84
2021/12/06 00:14:47;;;;;;;11.25;7.78;;;;;;;;;;5013953;28;20411;-85
2021/12/06 00:17:19;;;;;;;9.45;8.25;;;;;;;;;;5015880;28;20401;-84
2021/12/06 00:19:46;;;;;;;10.55;8.50;;;;;;;;;;5013457;28;20426;-84
2021/12/06 00:22:15;;;;;;;10.77;8.87;;;;;;;;;;5016184;28;20414;-84
2021/12/06 00:24:42;;;;;;;11.65;8.80;;;;;;;;;;5015355;28;20405;-83
2021/12/06 00:27:09;;;;;;;10.93;8.50;;;;;;;;;;5013615;28;20461;-85
2021/12/06 00:29:37;;;;;;;9.55;8.20;;;;;;;;;;5014576;28;20425;-84
2021/12/06 00:32:05;;;;;;;11.77;8.73;;;;;;;;;;5013383;28;20487;-85
2021/12/06 00:34:35;;;;;;;11.55;8.65;;;;;;;;;;5014958;28;20412;-85
2021/12/06 00:37:17;;;;;;;10.77;7.57;;;;;;;;;;5015199;28;20417;-84
2021/12/06 00:39:45;;;;;;;11.07;8.68;;;;;;;;;;5014120;28;20406;-84
2021/12/06 00:42:12;;;;;;;10.95;8.73;;;;;;;;;;5013341;28;20456;-84
2021/12/06 00:44:39;;;;;;;11.10;8.85;;;;;;;;;;5012928;28;20414;-84
2021/12/06 00:47:06;;;;;;;10.85;9.23;;;;;;;;;;5013827;28;20500;-85
2021/12/06 00:49:34;;;;;;;11.55;9.23;;;;;;;;;;5013749;28;20793;-85
2021/12/06 00:52:01;;;;;;;11.80;8.93;;;;;;;;;;5015809;28;20479;-85
2021/12/06 00:54:30;;;;;;;12.02;9.27;;;;;;;;;;5015305;28;20403;-84
2021/12/06 00:56:57;;;;;;;11.27;8.77;;;;;;;;;;5014360;28;20416;-85
2021/12/06 00:59:24;;;;;;;11.38;8.65;;;;;;;;;;5016920;28;20411;-85
2021/12/06 01:01:51;;;;;;;11.13;8.60;;;;;;;;;;5017731;28;20836;-85
2021/12/06 01:04:18;;;;;;;11.17;8.53;;;;;;;;;;5017032;28;20583;-84
2021/12/06 01:06:48;;;;;;;11.68;9.13;;;;;;;;;;5019579;28;20403;-85
2021/12/06 01:09:15;;;;;;;10.95;9.23;;;;;;;;;;5018587;28;20406;-85
2021/12/06 01:11:42;;;;;;;12.40;9.50;;;;;;;;;;5017864;28;20416;-84
2021/12/06 01:14:09;;;;;;;11.60;9.52;;;;;;;;;;5018343;28;20897;-84
2021/12/06 01:16:35;;;;;;;12.40;9.63;;;;;;;;;;5017231;28;20405;-85
2021/12/06 01:19:02;;;;;;;11.05;9.45;;;;;;;;;;5018448;28;20749;-85
2021/12/06 01:21:41;;;;;;;12.27;9.75;;;;;;;;;;5018605;28;20410;-85
2021/12/06 01:24:11;;;;;;;11.77;9.63;;;;;;;;;;5017125;28;20873;-85
2021/12/06 01:26:59;;;;;;;11.80;9.68;;;;;;;;;;5015291;28;20407;-85
2021/12/06 01:29:46;;;;;;;10.52;9.43;;;;;;;;;;5019156;28;20409;-85
2021/12/06 01:32:23;;;;;;;11.70;9.50;;;;;;;;;;5015938;28;20438;-85
2021/12/06 01:40:22;;;;;;;10.60;9.10;;;;;;;;;;5018453;28;20404;-85
2021/12/06 01:42:49;;;;;;;11.23;9.38;;;;;;;;;;5015915;28;20502;-84
2021/12/06 01:45:16;;;;;;;11.35;9.02;;;;;;;;;;5017112;28;20405;-85
2021/12/06 01:47:43;;;;;;;11.93;9.30;;;;;;;;;;5016585;28;20407;-85
2021/12/06 01:50:16;;;;;;;11.13;8.93;;;;;;;;;;5016306;28;20401;-85
2021/12/06 01:52:46;;;;;;;10.55;8.18;;;;;;;;;;5017735;28;20473;-84
2021/12/06 01:55:16;;;;;;;10.32;9.15;;;;;;;;;;5017113;28;20413;-84
2021/12/06 01:57:44;;;;;;;10.18;8.60;;;;;;;;;;5015826;28;20407;-85
2021/12/06 02:00:15;;;;;;;10.00;8.55;;;;;;;;;;5017161;28;20416;-85
2021/12/06 02:02:42;;;;;;;10.10;8.25;;;;;;;;;;5015216;28;20417;-84
2021/12/06 02:05:09;;;;;;;11.05;8.38;;;;;;;;;;5016427;28;20418;-85
2021/12/06 02:07:39;;;;;;;9.73;7.97;;;;;;;;;;5019251;28;20476;-84
2021/12/06 02:10:09;;;;;;;9.73;7.97;;;;;;;;;;5016106;28;20407;-85
2021/12/06 02:12:36;;;;;;;11.18;7.82;;;;;;;;;;5016143;28;20419;-85
2021/12/06 02:15:18;;;;;;;9.73;7.80;;;;;;;;;;5015990;28;20411;-84
2021/12/06 02:17:54;;;;;;;8.63;6.90;;;;;;;;;;5016277;28;20413;-85
2021/12/06 02:20:28;;;;;;;8.50;6.90;;;;;;;;;;5015899;28;20403;-85
2021/12/06 02:22:58;;;;;;;7.97;6.32;;;;;;;;;;5017942;28;20419;-85
2021/12/06 02:25:25;;;;;;;6.97;6.00;;;;;;;;;;5014363;28;20407;-85
2021/12/06 02:27:53;;;;;;;7.20;6.15;;;;;;;;;;5016928;28;20415;-84
2021/12/06 02:30:21;;;;;;;8.45;6.70;;;;;;;;;;5017859;28;20409;-85
2021/12/06 02:32:50;;;;;;;7.82;6.47;;;;;;;;;;5015501;28;20427;-84
2021/12/06 02:35:20;;;;;;;7.63;5.90;;;;;;;;;;5015680;28;20427;-85
2021/12/06 02:37:48;;;;;;;8.95;6.50;;;;;;;;;;5016887;28;20429;-84
2021/12/06 02:40:20;;;;;;;7.90;5.68;;;;;;;;;;5016657;28;20403;-84
2021/12/06 02:42:47;;;;;;;7.13;5.78;;;;;;;;;;5014300;28;20405;-85
2021/12/06 02:45:16;;;;;;;6.23;5.10;;;;;;;;;;5016758;28;20409;-85
2021/12/06 02:47:44;;;;;;;6.03;5.10;;;;;;;;;;5017105;28;20407;-85
2021/12/06 02:50:13;;;;;;;6.85;5.13;;;;;;;;;;5016921;28;20412;-85
2021/12/06 02:52:41;;;;;;;5.57;4.80;;;;;;;;;;5016146;28;20426;-85
2021/12/06 02:55:27;;;;;;;5.77;5.03;;;;;;;;;;5015443;28;20408;-84
2021/12/06 02:57:58;;;;;;;5.50;4.68;;;;;;;;;;5015459;28;20417;-85
2021/12/06 03:00:26;;;;;;;6.53;4.50;;;;;;;;;;5013978;28;20413;-85
2021/12/06 03:02:54;;;;;;;6.05;4.45;;;;;;;;;;5016500;28;20411;-85
2021/12/06 03:05:21;;;;;;;4.83;3.97;;;;;;;;;;5018966;28;20527;-84
2021/12/06 03:07:52;;;;;;;5.85;3.90;;;;;;;;;;5020222;28;20409;-84
2021/12/06 03:10:19;;;;;;;5.40;4.25;;;;;;;;;;5019302;28;20434;-85
2021/12/06 03:12:46;;;;;;;4.30;3.90;;;;;;;;;;5017991;28;20424;-85
2021/12/06 03:15:16;;;;;;;5.88;4.10;;;;;;;;;;5016147;28;20402;-84
2021/12/06 03:17:45;;;;;;;5.15;3.88;;;;;;;;;;5019578;28;20766;-84
2021/12/06 03:20:14;;;;;;;5.38;4.35;;;;;;;;;;5018018;28;20411;-85
2021/12/06 03:22:41;;;;;;;4.65;3.90;;;;;;;;;;5019278;28;20417;-85
2021/12/06 03:25:09;;;;;;;5.13;3.83;;;;;;;;;;5016314;28;20406;-85
2021/12/06 03:27:36;;;;;;;5.93;4.15;;;;;;;;;;5019223;28;20401;-84
2021/12/06 03:30:05;;;;;;;4.93;4.10;;;;;;;;;;5013876;28;20431;-84
2021/12/06 03:32:33;;;;;;;4.47;3.65;;;;;;;;;;5013973;28;20812;-85
2021/12/06 03:35:00;;;;;;;4.72;3.90;;;;;;;;;;5018649;28;20409;-84
2021/12/06 03:37:27;;;;;;;5.25;3.90;;;;;;;;;;5016966;28;20884;-85
2021/12/06 03:39:54;;;;;;;5.47;4.00;;;;;;;;;;5012130;28;20465;-84
2021/12/06 03:42:24;;;;;;;5.35;4.25;;;;;;;;;;5015645;28;20405;-84
2021/12/06 03:44:52;;;;;;;5.38;4.10;;;;;;;;;;5012825;28;20455;-85
2021/12/06 03:47:22;;;;;;;4.47;4.07;;;;;;;;;;5013197;28;20521;-84
2021/12/06 03:49:51;;;;;;;4.43;3.78;;;;;;;;;;5015061;28;20405;-84
2021/12/06 03:52:18;;;;;;;4.97;3.80;;;;;;;;;;5015458;28;20418;-85
2021/12/06 03:54:46;;;;;;;4.00;3.60;;;;;;;;;;5013406;28;20401;-85
2021/12/06 03:57:14;;;;;;;4.10;3.70;;;;;;;;;;5014438;28;20423;-85
2021/12/06 03:59:41;;;;;;;4.43;3.60;;;;;;;;;;5014308;28;20401;-84
2021/12/06 04:02:09;;;;;;;4.57;3.50;;;;;;;;;;5013481;28;20400;-84
2021/12/06 04:04:36;;;;;;;4.40;3.40;;;;;;;;;;5013790;28;20411;-84
2021/12/06 04:07:05;;;;;;;3.58;3.10;;;;;;;;;;5020285;28;20410;-85
2021/12/06 04:09:32;;;;;;;3.28;2.97;;;;;;;;;;5012805;28;20481;-84
2021/12/06 04:11:59;;;;;;;3.70;3.27;;;;;;;;;;5013261;28;20411;-84
2021/12/06 04:14:26;;;;;;;3.47;2.90;;;;;;;;;;5012288;28;20435;-84
2021/12/06 04:16:52;;;;;;;3.80;2.90;;;;;;;;;;5014213;28;20723;-84
2021/12/06 04:19:19;;;;;;;3.58;2.90;;;;;;;;;;5012715;28;20411;-84
2021/12/06 04:21:48;;;;;;;3.55;2.80;;;;;;;;;;5016845;28;20412;-85
2021/12/06 04:24:17;;;;;;;3.53;3.08;;;;;;;;;;5014193;28;20413;-85
2021/12/06 04:26:44;;;;;;;4.15;2.78;;;;;;;;;;5012072;28;20885;-84
2021/12/06 04:29:12;;;;;;;3.63;3.15;;;;;;;;;;5013094;28;20881;-84
2021/12/06 04:31:41;;;;;;;4.47;3.00;;;;;;;;;;5013390;28;20760;-84
2021/12/06 04:34:08;;;;;;;3.67;2.90;;;;;;;;;;5015327;28;20787;-85
2021/12/06 04:36:35;;;;;;;3.88;2.78;;;;;;;;;;5020520;28;21194;-85
2021/12/06 04:39:02;;;;;;;3.67;2.80;;;;;;;;;;5019309;28;20397;-84
2021/12/06 04:41:30;;;;;;;4.87;3.10;;;;;;;;;;5015115;28;20398;-84
2021/12/06 04:43:57;;;;;;;3.53;3.10;;;;;;;;;;5019250;28;20409;-85
2021/12/06 04:46:24;;;;;;;4.45;3.30;;;;;;;;;;5013758;28;20410;-85
2021/12/06 04:48:51;;;;;;;3.28;2.72;;;;;;;;;;5018258;28;20438;-84
2021/12/06 04:51:18;;;;;;;3.92;3.20;;;;;;;;;;5019255;28;20414;-85
2021/12/06 04:53:46;;;;;;;4.40;3.58;;;;;;;;;;5012344;28;20426;-85
2021/12/06 04:56:18;;;;;;;4.13;3.15;;;;;;;;;;5014266;28;20410;-84
2021/12/06 04:58:55;;;;;;;3.85;3.10;;;;;;;;;;5014139;28;20418;-84
2021/12/06 05:01:27;;;;;;;4.05;3.50;;;;;;;;;;5015889;28;20403;-85
2021/12/06 05:03:55;;;;;;;3.80;3.22;;;;;;;;;;5014683;28;20417;-84
2021/12/06 05:06:28;;;;;;;4.22;3.65;;;;;;;;;;5018587;28;20433;-84
2021/12/06 05:08:58;;;;;;;4.00;3.50;;;;;;;;;;5022964;28;20954;-85
2021/12/06 05:11:28;;;;;;;4.50;3.60;;;;;;;;;;5024281;28;20429;-84
2021/12/06 05:14:01;;;;;;;3.90;3.38;;;;;;;;;;5023674;28;20452;-84
2021/12/06 05:16:28;;;;;;;4.07;3.40;;;;;;;;;;5020789;28;20969;-85
2021/12/06 05:18:55;;;;;;;4.32;3.38;;;;;;;;;;5022974;28;20413;-84
2021/12/06 05:21:22;;;;;;;4.20;3.60;;;;;;;;;;5021643;28;20734;-85
2021/12/06 05:23:49;;;;;;;4.13;3.28;;;;;;;;;;5021132;28;20418;-84
2021/12/06 05:26:16;;;;;;;4.15;3.75;;;;;;;;;;5024229;28;20408;-84
2021/12/06 05:28:43;;;;;;;5.47;3.92;;;;;;;;;;5022673;28;20405;-85
2021/12/06 05:31:15;;;;;;;5.28;3.70;;;;;;;;;;5023170;28;20422;-84
2021/12/06 05:33:43;;;;;;;4.30;3.60;;;;;;;;;;5022249;28;20418;-85
2021/12/06 05:36:10;;;;;;;4.88;3.50;;;;;;;;;;5018479;28;20405;-85
2021/12/06 05:38:37;;;;;;;6.35;3.90;;;;;;;;;;5016886;28;20415;-85
2021/12/06 05:41:05;;;;;;;5.07;3.50;;;;;;;;;;5019973;28;20417;-85
2021/12/06 05:43:33;;;;;;;5.05;3.80;;;;;;;;;;5022551;28;20809;-86
2021/12/06 05:46:00;;;;;;;4.60;3.58;;;;;;;;;;5018631;28;20414;-84
2021/12/06 05:48:28;;;;;;;5.10;3.58;;;;;;;;;;5023300;28;20463;-85
2021/12/06 05:50:55;;;;;;;4.05;3.60;;;;;;;;;;5021442;28;20804;-85
2021/12/06 05:53:23;;;;;;;5.22;3.92;;;;;;;;;;5012202;28;20430;-84
2021/12/06 05:55:50;;;;;;;4.80;3.80;;;;;;;;;;5011837;28;20715;-85
2021/12/06 05:58:22;;;;;;;4.22;3.50;;;;;;;;;;5014980;28;20436;-85
2021/12/06 06:00:49;;;;;;;4.07;3.53;;;;;;;;;;5015056;28;20402;-85
2021/12/06 06:03:16;;;;;;;5.97;4.50;;;;;;;;;;5021004;28;20404;-85
2021/12/06 06:05:45;;;;;;;7.27;5.37;;;;;;;;;;5019133;28;20539;-85
2021/12/06 06:08:12;;;;;;;6.30;4.82;;;;;;;;;;5016849;28;20405;-84
2021/12/06 06:10:40;;;;;;;5.75;4.55;;;;;;;;;;5019470;28;20444;-85
2021/12/06 06:13:08;;;;;;;5.83;4.50;;;;;;;;;;5009774;28;20426;-85
2021/12/06 06:15:35;;;;;;;6.30;4.78;;;;;;;;;;5011743;28;20415;-85
2021/12/06 06:18:03;;;;;;;9.48;6.00;;;;;;;;;;5010622;28;20469;-86
2021/12/06 06:20:32;;;;;;;8.68;5.88;;;;;;;;;;5019784;28;20436;-85
2021/12/06 06:23:01;;;;;;;6.65;4.75;;;;;;;;;;5015956;28;20401;-85
2021/12/06 06:25:29;;;;;;;7.20;4.72;;;;;;;;;;5021078;28;20413;-85
2021/12/06 06:27:57;;;;;;;6.55;5.13;;;;;;;;;;5020886;28;20409;-85
2021/12/06 06:30:24;;;;;;;6.57;4.82;;;;;;;;;;5019735;28;20802;-85
2021/12/06 06:32:51;;;;;;;6.60;4.80;;;;;;;;;;5011836;28;20421;-85
2021/12/06 06:35:19;;;;;;;7.53;4.90;;;;;;;;;;5017571;28;20455;-85
2021/12/06 06:37:46;;;;;;;7.43;5.18;;;;;;;;;;5012764;28;20419;-84
2021/12/06 06:40:15;;;;;;;6.28;4.47;;;;;;;;;;5010029;28;20397;-88
2021/12/06 06:42:43;;;;;;;6.78;4.85;;;;;;;;;;5014069;28;20401;-84
2021/12/06 06:45:12;;;;;;;7.55;5.10;;;;;;;;;;5013385;28;20413;-85
2021/12/06 06:47:39;;;;;;;7.65;5.15;;;;;;;;;;5013397;28;20401;-84
2021/12/06 06:50:08;;;;;;;7.22;4.85;;;;;;;;;;5006915;28;20415;-84
2021/12/06 06:52:35;;;;;;;7.07;5.22;;;;;;;;;;5009776;28;20409;-85
2021/12/06 06:55:04;;;;;;;7.05;4.80;;;;;;;;;;5016067;28;20449;-84
2021/12/06 06:57:33;;;;;;;7.90;4.80;;;;;;;;;;5007991;28;20482;-85
2021/12/06 07:00:00;;;;;;;7.18;5.32;;;;;;;;;;5013180;28;20914;-84
2021/12/06 07:02:27;;;;;;;7.97;5.30;;;;;;;;;;5010164;28;20406;-85
2021/12/06 07:04:54;;;;;;;7.85;5.13;;;;;;;;;;5019535;28;20397;-85
2021/12/06 07:07:21;;;;;;;8.20;5.32;;;;;;;;;;5010369;28;20417;-85
2021/12/06 07:09:48;;;;;;;8.40;5.32;;;;;;;;;;5015995;28;20886;-84
2021/12/06 07:12:17;;;;;;;9.38;6.03;;;;;;;;;;5014557;28;20463;-85
2021/12/06 07:14:47;;;;;;;8.93;5.30;;;;;;;;;;5012883;28;20529;-85
2021/12/06 07:17:16;;;;;;;8.07;5.50;;;;;;;;;;5014129;28;20440;-85
2021/12/06 07:19:43;;;;;;;7.95;5.00;;;;;;;;;;5014451;28;20814;-85
2021/12/06 07:22:10;;;;;;;7.95;5.38;;;;;;;;;;5020024;28;20420;-85
2021/12/06 07:24:37;;;;;;;8.27;5.35;;;;;;;;;;5012645;28;20400;-85
2021/12/06 07:27:05;;;;;;;9.13;5.13;;;;;;;;;;5021235;28;20403;-85
2021/12/06 07:29:33;;;;;;;8.15;4.80;;;;;;;;;;5015865;28;20397;-85
2021/12/06 07:32:03;;;;;;;8.15;5.40;;;;;;;;;;5018916;28;20437;-85
2021/12/06 07:34:30;;;;;;;8.50;5.50;;;;;;;;;;5013129;28;20594;-84
2021/12/06 07:36:57;;;;;;;9.23;5.63;;;;;;;;;;5015394;28;20814;-84
2021/12/06 07:39:24;;;;;;;7.22;5.03;;;;;;;;;;5009343;28;20782;-85
2021/12/06 07:41:52;;;;;;;10.32;6.18;;;;;;;;;;5014974;28;20758;-85
2021/12/06 07:44:18;;;;;;;9.57;5.93;;;;;;;;;;5007986;28;20402;-84
2021/12/06 07:46:46;;;;;;;10.80;6.70;;;;;;;;;;5019669;28;20595;-85
2021/12/06 07:49:14;;;;;;;14.63;8.95;;;;;;;;;;5019746;28;20406;-84
2021/12/06 07:51:42;;;;;;;12.20;8.60;;;;;;;;;;5016805;28;20441;-85
2021/12/06 07:54:09;;;;;;;13.83;8.10;;;;;;;;;;5014816;28;20424;-85
2021/12/06 07:56:36;;;;;;;12.88;7.65;;;;;;;;;;5019975;28;20463;-84
2021/12/06 07:59:03;;;;;;;13.15;7.97;;;;;;;;;;5017296;28;20406;-84
2021/12/06 08:01:29;;;;;;;14.82;8.45;;;;;;;;;;5008547;28;20403;-84
2021/12/06 08:03:58;;;;;;;13.50;8.82;;;;;;;;;;5019182;28;20405;-85
2021/12/06 08:06:27;;;;;;;12.05;8.30;;;;;;;;;;5017670;28;20451;-85
2021/12/06 08:08:54;;;;;;;13.20;8.65;;;;;;;;;;5018221;28;20412;-84
2021/12/06 08:11:21;;;;;;;11.75;7.85;;;;;;;;;;5012066;28;20437;-84
2021/12/06 08:13:53;;;;;;;11.45;7.25;;;;;;;;;;5022043;28;20437;-84
2021/12/06 08:16:24;;;;;;;11.93;7.85;;;;;;;;;;5023696;28;20818;-84
2021/12/06 08:18:52;;;;;;;12.95;9.90;;;;;;;;;;5014884;28;20399;-84
2021/12/06 08:21:20;;;;;;;17.08;13.98;;;;;;;;;;5016984;28;20409;-84
2021/12/06 08:23:51;;;;;;;12.10;8.27;;;;;;;;;;5015237;28;20413;-85
2021/12/06 08:26:20;;;;;;;12.98;8.70;;;;;;;;;;5017104;28;20401;-84
2021/12/06 08:28:49;;;;;;;10.00;7.80;;;;;;;;;;5013535;28;20403;-84
2021/12/06 08:31:18;;;;;;;10.73;7.60;;;;;;;;;;5016284;28;20420;-84
2021/12/06 08:33:46;;;;;;;10.52;6.72;;;;;;;;;;5013357;28;20469;-84
2021/12/06 08:36:13;;;;;;;12.40;7.00;;;;;;;;;;5019378;28;20429;-84
2021/12/06 08:38:41;;;;;;;8.63;6.32;;;;;;;;;;5011720;28;20498;-84
2021/12/06 08:41:13;;;;;;;10.87;6.80;;;;;;;;;;5021086;28;20481;-84
2021/12/06 08:43:41;;;;;;;10.80;7.20;;;;;;;;;;5017306;28;20406;-84
2021/12/06 08:46:11;;;;;;;10.98;7.80;;;;;;;;;;5016087;28;20914;-84
2021/12/06 08:48:41;;;;;;;10.30;6.95;;;;;;;;;;5021586;28;20401;-83
2021/12/06 08:51:12;;;;;;;11.53;6.77;;;;;;;;;;5023063;28;20424;-83
2021/12/06 08:53:40;;;;;;;11.88;6.82;;;;;;;;;;5014014;28;20405;-83
2021/12/06 08:56:09;;;;;;;11.10;6.90;;;;;;;;;;5021999;28;20918;-85
2021/12/06 08:58:37;;;;;;;9.25;6.50;;;;;;;;;;5022407;28;20487;-83
2021/12/06 09:01:05;;;;;;;10.10;6.80;;;;;;;;;;5009860;28;20416;-83
2021/12/06 09:03:34;;;;;;;8.98;6.80;;;;;;;;;;5014272;28;20886;-83
2021/12/06 09:06:07;;;;;;;8.90;6.78;;;;;;;;;;5021989;28;20503;-83
2021/12/06 09:08:35;;;;;;;11.70;6.50;;;;;;;;;;5018475;28;20415;-85
2021/12/06 09:11:04;;;;;;;9.95;6.68;;;;;;;;;;5018334;28;20416;-85
2021/12/06 09:13:32;;;;;;;9.77;6.25;;;;;;;;;;5022487;28;20414;-85
2021/12/06 09:16:02;;;;;;;9.50;6.47;;;;;;;;;;5032655;28;20420;-85
2021/12/06 09:18:33;;;;;;;9.27;6.55;;;;;;;;;;5031651;28;20414;-85
2021/12/06 09:21:01;;;;;;;9.65;6.32;;;;;;;;;;5022551;28;20421;-86
2021/12/06 09:23:28;;;;;;;8.80;6.47;;;;;;;;;;5019280;28;20401;-85
2021/12/06 09:25:55;;;;;;;12.95;6.90;;;;;;;;;;5016375;28;20746;-85
2021/12/06 09:28:22;;;;;;;10.55;7.50;;;;;;;;;;5018226;28;20399;-85
2021/12/06 09:30:50;;;;;;;11.07;7.30;;;;;;;;;;5020356;28;20409;-85
2021/12/06 09:33:18;;;;;;;10.60;7.13;;;;;;;;;;5021049;28;20421;-86
2021/12/06 09:35:48;;;;;;;10.52;7.00;;;;;;;;;;5015324;28;20928;-85
2021/12/06 09:38:17;;;;;;;10.38;7.60;;;;;;;;;;5013780;28;20411;-85
2021/12/06 09:40:51;;;;;;;9.25;6.53;;;;;;;;;;5017323;28;20409;-85
2021/12/06 09:43:18;;;;;;;9.63;6.30;;;;;;;;;;5017690;28;20414;-85
2021/12/06 09:45:45;;;;;;;8.90;6.00;;;;;;;;;;5016374;28;20397;-84
2021/12/06 09:48:16;;;;;;;6.82;5.38;;;;;;;;;;5021475;28;20412;-84
2021/12/06 09:50:46;;;;;;;7.05;4.75;;;;;;;;;;5021130;28;20410;-85
2021/12/06 09:53:18;;;;;;;4.95;3.65;;;;;;;;;;5012096;28;20401;-85
2021/12/06 09:55:48;;;;;;;4.28;3.38;;;;;;;;;;5020454;28;20433;-85
2021/12/06 09:58:15;;;;;;;6.18;4.00;;;;;;;;;;5017447;28;20397;-85
2021/12/06 10:00:45;;;;;;;7.75;4.55;;;;;;;;;;5015329;28;20543;-85
2021/12/06 10:03:16;;;;;;;7.83;4.60;;;;;;;;;;5017959;28;20402;-85
2021/12/06 10:05:43;;;;;;;7.25;5.03;;;;;;;;;;5019242;28;20419;-85
2021/12/06 10:08:09;;;;;;;6.28;4.72;;;;;;;;;;5017627;28;20426;-84
2021/12/06 10:10:37;;;;;;;5.60;4.15;;;;;;;;;;5014700;28;20416;-83
2021/12/06 10:13:04;;;;;;;3.75;2.88;;;;;;;;;;5013506;28;20416;-83
2021/12/06 10:15:31;;;;;;;2.97;2.40;;;;;;;;;;5016023;28;20867;-84
2021/12/06 10:18:01;;;;;;;6.40;3.15;;;;;;;;;;5011524;28;20411;-84
2021/12/06 10:20:30;;;;;;;3.80;2.50;;;;;;;;;;5013273;28;20815;-83
2021/12/06 10:22:58;;;;;;;3.55;2.03;;;;;;;;;;5018273;28;20467;-83
2021/12/06 10:25:38;;;;;;;3.20;2.08;;;;;;;;;;5011088;28;20459;-83
2021/12/06 10:28:06;;;;;;;2.92;2.10;;;;;;;;;;5014363;28;20407;-82
2021/12/06 10:30:34;;;;;;;3.38;2.08;;;;;;;;;;5015615;28;20406;-83
2021/12/06 10:33:05;;;;;;;1.70;1.17;;;;;;;;;;5012539;28;20773;-83
2021/12/06 10:35:34;;;;;;;2.05;1.25;;;;;;;;;;5016718;28;20809;-83
2021/12/06 10:38:01;;;;;;;1.88;1.00;;;;;;;;;;5012843;28;20403;-82
2021/12/06 10:40:30;;;;;;;2.20;0.90;;;;;;;;;;5016408;28;20398;-83
2021/12/06 10:43:00;;;;;;;1.38;0.80;;;;;;;;;;5016923;28;21315;-83
2021/12/06 10:45:30;;;;;;;1.33;0.60;;;;;;;;;;5020159;28;20438;-83
2021/12/06 10:48:13;;;;;;;1.17;0.77;;;;;;;;;;5018940;28;20410;-83
2021/12/06 10:50:45;;;;;;;1.10;0.80;;;;;;;;;;5018635;28;20406;-82
2021/12/06 10:53:13;;;;;;;2.83;1.10;;;;;;;;;;5012772;28;20774;-83
2021/12/06 10:55:41;;;;;;;1.75;1.25;;;;;;;;;;5020427;28;20941;-83
2021/12/06 10:58:13;;;;;;;2.72;1.70;;;;;;;;;;5016986;28;20397;-82
2021/12/06 11:00:48;;;;;;;2.10;1.85;;;;;;;;;;5015255;28;20449;-83
2021/12/06 11:03:22;;;;;;;1.90;1.38;;;;;;;;;;5017764;28;20413;-83
2021/12/06 11:05:54;;;;;;;2.30;1.17;;;;;;;;;;5017073;28;21060;-82
2021/12/06 11:08:23;;;;;;;1.10;1.00;;;;;;;;;;5014764;28;20407;-83
2021/12/06 11:10:53;;;;;;;1.08;0.85;;;;;;;;;;5013606;28;20407;-83
2021/12/06 11:13:23;;;;;;;1.60;1.10;;;;;;;;;;5013042;28;20503;-83
2021/12/06 11:16:10;;;;;;;1.60;1.17;;;;;;;;;;5017632;28;20474;-83
2021/12/06 11:18:50;;;;;;;2.08;1.10;;;;;;;;;;5011889;28;20789;-83
2021/12/06 11:21:27;;;;;;;8.15;4.63;;;;;;;;;;5014573;28;20770;-83
2021/12/06 11:24:10;;;;;;;8.15;4.45;;;;;;;;;;5018395;28;20403;-83
2021/12/06 11:26:40;;;;;;;9.10;4.55;;;;;;;;;;5009457;28;20534;-83
2021/12/06 11:29:10;;;;;;;3.90;2.45;;;;;;;;;;5018116;28;20429;-83
2021/12/06 11:31:39;;;;;;;6.40;3.28;;;;;;;;;;5014607;28;20941;-83
2021/12/06 11:34:07;;;;;;;25.40;15.00;;;;;;;;;;5014066;28;20454;-83
2021/12/06 11:36:40;;;;;;;25.77;13.57;;;;;;;;;;5011789;28;20990;-83
2021/12/06 11:39:11;;;;;;;9.90;5.65;;;;;;;;;;5008042;28;20885;-83
2021/12/06 11:41:42;;;;;;;4.70;2.75;;;;;;;;;;5010290;28;20456;-83
2021/12/06 11:44:25;;;;;;;8.77;5.00;;;;;;;;;;5009392;28;20464;-83
2021/12/06 11:46:57;;;;;;;2.72;2.00;;;;;;;;;;5016973;28;20484;-83
2021/12/06 11:49:29;;;;;;;1.90;1.55;;;;;;;;;;5017371;28;20404;-82
2021/12/06 11:51:59;;;;;;;2.65;1.85;;;;;;;;;;5014878;28;20992;-83
2021/12/06 11:54:26;;;;;;;2.00;1.80;;;;;;;;;;5017541;28;20936;-82
2021/12/06 11:56:53;;;;;;;2.47;1.45;;;;;;;;;;5012160;28;20439;-82
2021/12/06 11:59:21;;;;;;;2.70;2.22;;;;;;;;;;5017438;28;20408;-82
2021/12/06 12:01:52;;;;;;;2.92;2.13;;;;;;;;;;5010972;28;20410;-83
2021/12/06 12:04:21;;;;;;;1.92;1.50;;;;;;;;;;5014504;28;20474;-83
2021/12/06 12:06:55;;;;;;;2.30;1.75;;;;;;;;;;5015368;28;20459;-83
2021/12/06 12:09:26;;;;;;;2.80;2.00;;;;;;;;;;5009212;28;20445;-83
2021/12/06 12:12:00;;;;;;;4.78;1.98;;;;;;;;;;5016876;28;20463;-84
2021/12/06 12:14:30;;;;;;;3.45;2.45;;;;;;;;;;5014431;28;20540;-85
2021/12/06 12:16:58;;;;;;;4.15;2.72;;;;;;;;;;5011435;28;20472;-85
2021/12/06 12:19:25;;;;;;;2.67;1.60;;;;;;;;;;5009491;28;20514;-84
2021/12/06 12:21:52;;;;;;;2.00;1.60;;;;;;;;;;5011529;28;20454;-85
2021/12/06 12:24:19;;;;;;;3.20;1.90;;;;;;;;;;5012267;28;20786;-84
2021/12/06 12:26:58;;;;;;;2.60;2.28;;;;;;;;;;5009743;28;20413;-85
2021/12/06 12:29:27;;;;;;;3.25;2.45;;;;;;;;;;5006659;28;20454;-84
2021/12/06 12:31:58;;;;;;;2.75;1.88;;;;;;;;;;5007709;28;20416;-84
2021/12/06 12:34:27;;;;;;;3.20;1.70;;;;;;;;;;5007695;28;20415;-85
2021/12/06 12:36:55;;;;;;;4.00;2.50;;;;;;;;;;5005492;28;20935;-84
2021/12/06 12:39:24;;;;;;;2.63;1.80;;;;;;;;;;5008676;28;20405;-85
2021/12/06 12:41:55;;;;;;;3.70;2.00;;;;;;;;;;5011191;28;20416;-85
2021/12/06 12:44:22;;;;;;;2.90;1.80;;;;;;;;;;5017854;28;20414;-84
2021/12/06 12:46:53;;;;;;;3.13;1.90;;;;;;;;;;5011229;28;20403;-84
2021/12/06 12:49:23;;;;;;;7.50;4.03;;;;;;;;;;5015721;28;20496;-83
2021/12/06 12:51:52;;;;;;;10.38;5.05;;;;;;;;;;5010342;28;20488;-83
2021/12/06 12:54:23;;;;;;;4.25;2.45;;;;;;;;;;5017779;28;20398;-83
2021/12/06 12:56:53;;;;;;;9.00;5.38;;;;;;;;;;5021354;28;20425;-83
2021/12/06 12:59:31;;;;;;;8.32;4.38;;;;;;;;;;5019050;28;20430;-83
2021/12/06 13:02:30;;;;;;;6.72;3.60;;;;;;;;;;5013423;28;20455;-82
2021/12/06 13:05:13;;;;;;;2.38;1.88;;;;;;;;;;5021775;28;21260;-83
2021/12/06 13:07:59;;;;;;;4.13;2.13;;;;;;;;;;5026675;28;20494;-83
2021/12/06 13:10:33;;;;;;;3.00;2.27;;;;;;;;;;5019462;28;20436;-85
2021/12/06 13:13:08;;;;;;;3.85;2.90;;;;;;;;;;5015250;28;20417;-85
2021/12/06 13:15:49;;;;;;;5.75;4.15;;;;;;;;;;5020368;28;20657;-83
2021/12/06 13:21:56;;;;;;;4.07;3.15;;;;;;;;;;5011059;28;20516;-81
2021/12/06 13:24:51;;;;;;;4.30;2.72;;;;;;;;;;5018783;28;20455;-83
2021/12/06 13:27:40;;;;;;;4.85;3.80;;;;;;;;;;5017701;28;20467;-84
2021/12/06 13:30:21;;;;;;;4.70;3.08;;;;;;;;;;5012402;28;20931;-85
2021/12/06 13:32:51;;;;;;;7.35;3.25;;;;;;;;;;5015244;28;20435;-84
2021/12/06 13:35:36;;;;;;;3.92;2.45;;;;;;;;;;5009631;28;20642;-83
2021/12/06 13:38:13;;;;;;;2.83;2.55;;;;;;;;;;5018348;28;20777;-83
2021/12/06 13:40:45;;;;;;;3.67;3.05;;;;;;;;;;5022228;28;20402;-84
2021/12/06 13:43:15;;;;;;;5.30;2.70;;;;;;;;;;5019897;28;20399;-83
2021/12/06 13:45:50;;;;;;;3.17;2.55;;;;;;;;;;5021567;28;20401;-84
2021/12/06 13:48:20;;;;;;;3.40;2.75;;;;;;;;;;5019699;28;20409;-84
2021/12/06 13:50:49;;;;;;;3.60;2.95;;;;;;;;;;5020334;28;20778;-83
2021/12/06 13:53:24;;;;;;;3.15;2.30;;;;;;;;;;5015674;28;20790;-84
2021/12/06 13:55:53;;;;;;;4.00;3.10;;;;;;;;;;5022306;28;20421;-84
2021/12/06 13:58:21;;;;;;;3.97;2.50;;;;;;;;;;5019239;28;20405;-84
2021/12/06 14:00:49;;;;;;;25.75;14.93;;;;;;;;;;5015000;28;20410;-84
2021/12/06 14:03:19;;;;;;;2.83;2.53;;;;;;;;;;5018321;28;20746;-84
2021/12/06 14:05:49;;;;;;;2.47;2.28;;;;;;;;;;5010427;28;20429;-84
2021/12/06 14:08:17;;;;;;;3.70;2.60;;;;;;;;;;5017124;28;20500;-83
2021/12/06 14:10:45;;;;;;;3.22;2.33;;;;;;;;;;5016067;28;20490;-83
2021/12/06 14:13:12;;;;;;;5.38;3.92;;;;;;;;;;5016220;28;20425;-82
2021/12/06 14:15:48;;;;;;;4.95;3.22;;;;;;;;;;5017495;28;20402;-85
2021/12/06 14:18:18;;;;;;;3.28;2.60;;;;;;;;;;5022001;28;21773;-85
2021/12/06 14:20:49;;;;;;;3.00;2.20;;;;;;;;;;5014800;28;20412;-84
2021/12/06 14:23:16;;;;;;;3.88;2.15;;;;;;;;;;5016266;28;20421;-84
2021/12/06 14:25:49;;;;;;;3.58;2.45;;;;;;;;;;5018824;28;20837;-84
2021/12/06 14:28:18;;;;;;;3.45;2.38;;;;;;;;;;5018433;28;20686;-84
2021/12/06 14:30:46;;;;;;;3.47;1.90;;;;;;;;;;5017148;28;20476;-84
2021/12/06 14:33:13;;;;;;;2.70;2.10;;;;;;;;;;5017849;28;20419;-84
2021/12/06 14:35:43;;;;;;;3.65;2.17;;;;;;;;;;5016795;28;20397;-84
2021/12/06 14:38:10;;;;;;;4.30;2.25;;;;;;;;;;5017515;28;20406;-84
2021/12/06 14:40:37;;;;;;;3.58;2.25;;;;;;;;;;5019653;28;20410;-84
2021/12/06 14:43:10;;;;;;;4.00;2.47;;;;;;;;;;5017934;28;20885;-84
2021/12/06 14:45:37;;;;;;;6.18;3.47;;;;;;;;;;5020114;28;20401;-84
2021/12/06 14:48:08;;;;;;;6.30;3.20;;;;;;;;;;5013453;28;20422;-85
2021/12/06 14:50:47;;;;;;;5.07;2.38;;;;;;;;;;5019103;28;20413;-84
2021/12/06 14:53:21;;;;;;;6.15;2.38;;;;;;;;;;5016166;28;21123;-85
2021/12/06 14:55:54;;;;;;;3.85;2.17;;;;;;;;;;5018389;28;20493;-84
2021/12/06 14:58:23;;;;;;;5.15;2.28;;;;;;;;;;5021324;28;20416;-83
2021/12/06 15:00:55;;;;;;;2.97;2.17;;;;;;;;;;5017133;28;20401;-83
2021/12/06 15:03:27;;;;;;;3.40;2.58;;;;;;;;;;5017182;28;20746;-83
2021/12/06 15:05:57;;;;;;;4.45;2.53;;;;;;;;;;5016807;28;20422;-84